• Join FlightAware (Why Join?)
  • Login
  • US Flag 
05:16AM EST


 

Airport Tracker/Info


-or-


 

Live Flight TrackerFlight Track Log ✈ UAL878 ✈ 20-Apr-2013 ✈ ZSPD / PVG - KLAX

Flight Track Log - Related Links

Times and Time Zones

All times are in EDT time to prevent confusion due to time zone crossing. See the UAL878 flight status page for this flight to view local times or setup timezone preferences in your user account.

Time Position Orientation Groundspeed Altitude Reporting Facility
EDT Latitude Longitude Course Direction KTS MPH feet Rate Location/Type
11:21AM 31.4379 122.1451 46° Northeast  Level FlightAware Approximate
11:22AM 31.5361 122.2631 46° Northeast  Level FlightAware Approximate
11:23AM 31.6341 122.3814 46° Northeast  Level FlightAware Approximate
11:24AM 31.7321 122.4999 46° Northeast  Level FlightAware Approximate
11:25AM 31.8299 122.6188 46° Northeast  Level FlightAware Approximate
11:26AM 31.9276 122.7378 46° Northeast  Level FlightAware Approximate
11:27AM 32.0252 122.8571 46° Northeast  Level FlightAware Approximate
11:28AM 32.1227 122.9767 46° Northeast  Level FlightAware Approximate
11:29AM 32.2201 123.0965 46° Northeast  Level FlightAware Approximate
11:30AM 32.3090 123.2062 46° Northeast  Level FlightAware Approximate
11:31AM 32.4062 123.3265 46° Northeast  Level FlightAware Approximate
11:32AM 32.5032 123.4471 46° Northeast  Level FlightAware Approximate
11:33AM 32.6002 123.5679 46° Northeast  Level FlightAware Approximate
11:34AM 32.6970 123.6890 46° Northeast  Level FlightAware Approximate
11:35AM 32.7937 123.8104 47° Northeast  Level FlightAware Approximate
11:36AM 32.8903 123.9320 47° Northeast  Level FlightAware Approximate
11:37AM 32.9867 124.0539 47° Northeast  Level FlightAware Approximate
11:38AM 33.0831 124.1760 47° Northeast  Level FlightAware Approximate
11:39AM 33.1793 124.2984 47° Northeast  Level FlightAware Approximate
11:40AM 33.2754 124.4211 47° Northeast  Level FlightAware Approximate
11:41AM 33.3714 124.5441 47° Northeast  Level FlightAware Approximate
11:42AM 33.4673 124.6673 47° Northeast  Level FlightAware Approximate
11:43AM 33.5630 124.7908 47° Northeast  Level FlightAware Approximate
11:44AM 33.6586 124.9146 47° Northeast  Level FlightAware Approximate
11:45AM 33.7542 125.0387 47° Northeast  Level FlightAware Approximate
11:46AM 33.8495 125.1630 47° Northeast  Level FlightAware Approximate
11:47AM 33.9448 125.2876 47° Northeast  Level FlightAware Approximate
11:48AM 34.0399 125.4125 47° Northeast  Level FlightAware Approximate
11:49AM 34.1349 125.5377 47° Northeast  Level FlightAware Approximate
11:50AM 34.2298 125.6631 48° Northeast  Level FlightAware Approximate
11:51AM 34.3244 125.7887 48° Northeast  Level FlightAware Approximate
11:52AM 34.4188 125.9145 48° Northeast  Level FlightAware Approximate
11:53AM 34.5130 126.0404 48° Northeast  Level FlightAware Approximate
11:54AM 34.6071 126.1666 48° Northeast  Level FlightAware Approximate
11:55AM 34.7010 126.2931 48° Northeast  Level FlightAware Approximate
11:56AM 34.7947 126.4197 48° Northeast  Level FlightAware Approximate
11:57AM 34.8882 126.5466 48° Northeast  Level FlightAware Approximate
11:58AM 34.9817 126.6738 48° Northeast  Level FlightAware Approximate
11:59AM 35.0749 126.8012 48° Northeast  Level FlightAware Approximate
12:00PM 35.1681 126.9290 48° Northeast  Level FlightAware Approximate
12:01PM 35.2611 127.0570 48° Northeast  Level FlightAware Approximate
12:02PM 35.3540 127.1853 48° Northeast  Level FlightAware Approximate
12:03PM 35.4467 127.3140 48° Northeast  Level FlightAware Approximate
12:04PM 35.5393 127.4429 49° Northeast  Level FlightAware Approximate
12:05PM 35.6318 127.5721 49° Northeast  Level FlightAware Approximate
12:06PM 35.7241 127.7017 49° Northeast  Level FlightAware Approximate
12:07PM 35.8163 127.8315 49° Northeast  Level FlightAware Approximate
12:08PM 35.9083 127.9616 49° Northeast  Level FlightAware Approximate
12:09PM 36.0002 128.0921 49° Northeast  Level FlightAware Approximate
12:10PM 36.0920 128.2228 49° Northeast  Level FlightAware Approximate
12:11PM 36.1836 128.3538 49° Northeast  Level FlightAware Approximate
12:12PM 36.2751 128.4852 49° Northeast  Level FlightAware Approximate
12:13PM 36.3664 128.6169 49° Northeast  Level FlightAware Approximate
12:14PM 36.4576 128.7488 49° Northeast  Level FlightAware Approximate
12:15PM 36.5486 128.8811 49° Northeast  Level FlightAware Approximate
12:16PM 36.6395 129.0137 49° Northeast  Level FlightAware Approximate
12:17PM 36.7303 129.1466 50° Northeast  Level FlightAware Approximate
12:18PM 36.8208 129.2799 50° Northeast  Level FlightAware Approximate
12:19PM 36.9110 129.4136 50° Northeast  Level FlightAware Approximate
12:20PM 37.0012 129.5477 50° Northeast  Level FlightAware Approximate
12:21PM 37.0911 129.6820 50° Northeast  Level FlightAware Approximate
12:22PM 37.1810 129.8167 50° Northeast  Level FlightAware Approximate
12:23PM 37.2706 129.9517 50° Northeast  Level FlightAware Approximate
12:24PM 37.3600 130.0868 50° Northeast  Level FlightAware Approximate
12:25PM 37.4492 130.2223 50° Northeast  Level FlightAware Approximate
12:26PM 37.5383 130.3580 50° Northeast  Level FlightAware Approximate
12:27PM 37.6272 130.4941 50° Northeast  Level FlightAware Approximate
12:28PM 37.7159 130.6306 51° Northeast  Level FlightAware Approximate
12:29PM 37.8045 130.7673 51° Northeast  Level FlightAware Approximate
12:30PM 37.8930 130.9044 51° Northeast  Level FlightAware Approximate
12:31PM 37.9813 131.0418 51° Northeast  Level FlightAware Approximate
12:32PM 38.0694 131.1795 51° Northeast  Level FlightAware Approximate
12:33PM 38.1573 131.3176 51° Northeast  Level FlightAware Approximate
12:34PM 38.2451 131.4560 51° Northeast  Level FlightAware Approximate
12:35PM 38.3327 131.5947 51° Northeast  Level FlightAware Approximate
12:36PM 38.4202 131.7338 51° Northeast  Level FlightAware Approximate
12:37PM 38.5075 131.8732 51° Northeast  Level FlightAware Approximate
12:38PM 38.5948 132.0131 51° Northeast  Level FlightAware Approximate
12:39PM 38.6819 132.1534 51° Northeast  Level FlightAware Approximate
12:40PM 38.7688 132.2940 52° Northeast  Level FlightAware Approximate
12:41PM 38.8554 132.4348 52° Northeast  Level FlightAware Approximate
12:42PM 38.9419 132.5759 52° Northeast  Level FlightAware Approximate
12:43PM 39.0282 132.7174 52° Northeast  Level FlightAware Approximate
12:44PM 39.1143 132.8592 52° Northeast  Level FlightAware Approximate
12:45PM 39.2003 133.0013 52° Northeast  Level FlightAware Approximate
12:46PM 39.2860 133.1438 52° Northeast  Level FlightAware Approximate
12:47PM 39.3717 133.2866 52° Northeast  Level FlightAware Approximate
12:48PM 39.4571 133.4298 52° Northeast  Level FlightAware Approximate
12:49PM 39.5423 133.5734 52° Northeast  Level FlightAware Approximate
12:50PM 39.6274 133.7173 52° Northeast  Level FlightAware Approximate
12:51PM 39.7123 133.8615 53° Northeast  Level FlightAware Approximate
12:52PM 39.7970 134.0061 53° Northeast  Level FlightAware Approximate
12:53PM 39.8816 134.1511 53° Northeast  Level FlightAware Approximate
12:54PM 39.9659 134.2964 53° Northeast  Level FlightAware Approximate
12:55PM 40.0501 134.4421 53° Northeast  Level FlightAware Approximate
12:56PM 40.1341 134.5881 53° Northeast  Level FlightAware Approximate
12:57PM 40.2179 134.7345 53° Northeast  Level FlightAware Approximate
12:58PM 40.3015 134.8813 53° Northeast  Level FlightAware Approximate
12:59PM 40.3850 135.0284 53° Northeast  Level FlightAware Approximate
01:00PM 40.4682 135.1759 53° Northeast  Level FlightAware Approximate
01:01PM 40.5513 135.3237 53° Northeast  Level FlightAware Approximate
01:02PM 40.6342 135.4719 54° Northeast  Level FlightAware Approximate
01:03PM 40.7169 135.6205 54° Northeast  Level FlightAware Approximate
01:04PM 40.7994 135.7694 54° Northeast  Level FlightAware Approximate
01:05PM 40.8817 135.9187 54° Northeast  Level FlightAware Approximate
01:06PM 40.9639 136.0684 54° Northeast  Level FlightAware Approximate
01:07PM 41.0458 136.2184 54° Northeast  Level FlightAware Approximate
01:08PM 41.1275 136.3689 54° Northeast  Level FlightAware Approximate
01:09PM 41.2091 136.5197 54° Northeast  Level FlightAware Approximate
01:10PM 41.2904 136.6709 54° Northeast  Level FlightAware Approximate
01:11PM 41.3716 136.8224 54° Northeast  Level FlightAware Approximate
01:12PM 41.4525 136.9743 55° Northeast  Level FlightAware Approximate
01:13PM 41.5333 137.1266 55° Northeast  Level FlightAware Approximate
01:14PM 41.6138 137.2793 55° Northeast  Level FlightAware Approximate
01:15PM 41.6942 137.4324 55° Northeast  Level FlightAware Approximate
01:16PM 41.7743 137.5859 55° Northeast  Level FlightAware Approximate
01:17PM 41.8543 137.7397 55° Northeast  Level FlightAware Approximate
01:18PM 41.9340 137.8939 55° Northeast  Level FlightAware Approximate
01:19PM 42.0135 138.0485 55° Northeast  Level FlightAware Approximate
01:20PM 42.0928 138.2035 55° Northeast  Level FlightAware Approximate
01:21PM 42.1719 138.3589 55° Northeast  Level FlightAware Approximate
01:22PM 42.2508 138.5147 56° Northeast  Level FlightAware Approximate
01:23PM 42.3295 138.6709 56° Northeast  Level FlightAware Approximate
01:24PM 42.4080 138.8274 56° Northeast  Level FlightAware Approximate
01:25PM 42.4862 138.9843 56° Northeast  Level FlightAware Approximate
01:26PM 42.5643 139.1417 56° Northeast  Level FlightAware Approximate
01:27PM 42.6421 139.2994 56° Northeast  Level FlightAware Approximate
01:28PM 42.7197 139.4575 56° Northeast  Level FlightAware Approximate
01:29PM 42.7971 139.6160 56° Northeast  Level FlightAware Approximate
01:30PM 42.8743 139.7750 56° Northeast  Level FlightAware Approximate
01:31PM 42.9512 139.9343 57° Northeast  Level FlightAware Approximate
01:32PM 43.0280 140.0940 57° Northeast  Level FlightAware Approximate
01:33PM 43.1045 140.2541 57° Northeast  Level FlightAware Approximate
01:34PM 43.1808 140.4146 57° Northeast  Level FlightAware Approximate
01:35PM 43.2568 140.5755 57° Northeast  Level FlightAware Approximate
01:36PM 43.3327 140.7368 57° Northeast  Level FlightAware Approximate
01:37PM 43.4083 140.8985 57° Northeast  Level FlightAware Approximate
01:38PM 43.4837 141.0607 57° Northeast  Level FlightAware Approximate
01:39PM 43.5588 141.2232 57° Northeast  Level FlightAware Approximate
01:40PM 43.6342 141.3871 58° Northeast  Level FlightAware Approximate
01:41PM 43.7093 141.5514 58° Northeast  Level FlightAware Approximate
01:42PM 43.7842 141.7162 58° Northeast  Level FlightAware Approximate
01:43PM 43.8588 141.8813 58° Northeast  Level FlightAware Approximate
01:44PM 43.9333 142.0468 58° Northeast  Level FlightAware Approximate
01:45PM 44.0075 142.2128 58° Northeast  Level FlightAware Approximate
01:46PM 44.0814 142.3792 58° Northeast  Level FlightAware Approximate
01:47PM 44.1551 142.5460 58° Northeast  Level FlightAware Approximate
01:48PM 44.2285 142.7132 58° Northeast  Level FlightAware Approximate
01:49PM 44.3018 142.8808 59° Northeast  Level FlightAware Approximate
01:50PM 44.3747 143.0489 59° Northeast  Level FlightAware Approximate
01:51PM 44.4474 143.2174 59° Northeast  Level FlightAware Approximate
01:52PM 44.5199 143.3862 59° Northeast  Level FlightAware Approximate
01:53PM 44.5921 143.5556 59° Northeast  Level FlightAware Approximate
01:54PM 44.6641 143.7253 59° Northeast  Level FlightAware Approximate
01:55PM 44.7358 143.8954 59° Northeast  Level FlightAware Approximate
01:56PM 44.8073 144.0660 59° Northeast  Level FlightAware Approximate
01:57PM 44.8785 144.2370 60° Northeast  Level FlightAware Approximate
01:58PM 44.9494 144.4084 60° Northeast  Level FlightAware Approximate
01:59PM 45.0201 144.5803 60° Northeast  Level FlightAware Approximate
02:00PM 45.0905 144.7525 60° Northeast  Level FlightAware Approximate
02:01PM 45.1608 144.9252 60° Northeast  Level FlightAware Approximate
02:02PM 45.2309 145.0982 60° Northeast  Level FlightAware Approximate
02:03PM 45.3007 145.2716 60° Northeast  Level FlightAware Approximate
02:04PM 45.3701 145.4452 60° Northeast  Level FlightAware Approximate
02:05PM 45.4393 145.6192 60° Northeast  Level FlightAware Approximate
02:06PM 45.5082 145.7936 61° Northeast  Level FlightAware Approximate
02:07PM 45.5769 145.9685 61° Northeast  Level FlightAware Approximate
02:08PM 45.6452 146.1438 61° Northeast  Level FlightAware Approximate
02:09PM 45.7133 146.3195 61° Northeast  Level FlightAware Approximate
02:10PM 45.7812 146.4957 61° Northeast  Level FlightAware Approximate
02:11PM 45.8487 146.6722 61° Northeast  Level FlightAware Approximate
02:12PM 45.9160 146.8492 61° Northeast  Level FlightAware Approximate
02:13PM 45.9830 147.0267 61° Northeast  Level FlightAware Approximate
02:14PM 46.0498 147.2045 62° Northeast  Level FlightAware Approximate
02:15PM 46.1162 147.3828 62° Northeast  Level FlightAware Approximate
02:16PM 46.1824 147.5616 62° Northeast  Level FlightAware Approximate
02:17PM 46.2483 147.7407 62° Northeast  Level FlightAware Approximate
02:18PM 46.3139 147.9203 62° Northeast  Level FlightAware Approximate
02:19PM 46.3793 148.1003 62° Northeast  Level FlightAware Approximate
02:20PM 46.4444 148.2807 62° Northeast  Level FlightAware Approximate
02:21PM 46.5091 148.4616 62° Northeast  Level FlightAware Approximate
02:22PM 46.5736 148.6429 63° Northeast  Level FlightAware Approximate
02:23PM 46.6378 148.8247 63° Northeast  Level FlightAware Approximate
02:24PM 46.7018 149.0068 63° Northeast  Level FlightAware Approximate
02:25PM 46.7654 149.1894 63° Northeast  Level FlightAware Approximate
02:26PM 46.8287 149.3725 63° Northeast  Level FlightAware Approximate
02:27PM 46.8918 149.5559 63° Northeast  Level FlightAware Approximate
02:28PM 46.9545 149.7398 63° Northeast  Level FlightAware Approximate
02:29PM 47.0170 149.9241 64° Northeast  Level FlightAware Approximate
02:30PM 47.0791 150.1089 64° Northeast  Level FlightAware Approximate
02:31PM 47.1410 150.2941 64° Northeast  Level FlightAware Approximate
02:32PM 47.2025 150.4797 64° Northeast  Level FlightAware Approximate
02:33PM 47.2638 150.6657 64° Northeast  Level FlightAware Approximate
02:34PM 47.3248 150.8522 64° Northeast  Level FlightAware Approximate
02:35PM 47.3854 151.0391 64° Northeast  Level FlightAware Approximate
02:36PM 47.4458 151.2264 64° Northeast  Level FlightAware Approximate
02:37PM 47.5058 151.4142 65° Northeast  Level FlightAware Approximate
02:38PM 47.5656 151.6024 65° Northeast  Level FlightAware Approximate
02:39PM 47.6250 151.7910 65° Northeast  Level FlightAware Approximate
02:40PM 47.6841 151.9800 65° Northeast  Level FlightAware Approximate
02:41PM 47.7429 152.1695 65° Northeast  Level FlightAware Approximate
02:42PM 47.8014 152.3594 65° Northeast  Level FlightAware Approximate
02:43PM 47.8596 152.5497 65° Northeast  Level FlightAware Approximate
02:44PM 47.9175 152.7405 66° East  Level FlightAware Approximate
02:45PM 47.9750 152.9317 66° East  Level FlightAware Approximate
02:46PM 48.0322 153.1233 66° East  Level FlightAware Approximate
02:47PM 48.0891 153.3153 66° East  Level FlightAware Approximate
02:48PM 48.1457 153.5078 66° East  Level FlightAware Approximate
02:49PM 48.2020 153.7007 66° East  Level FlightAware Approximate
02:50PM 48.2580 153.8940 66° East  Level FlightAware Approximate
02:51PM 48.3136 154.0877 67° East  Level FlightAware Approximate
02:52PM 48.3689 154.2818 67° East  Level FlightAware Approximate
02:53PM 48.4239 154.4764 67° East  Level FlightAware Approximate
02:54PM 48.4785 154.6714 67° East  Level FlightAware Approximate
02:55PM 48.5328 154.8668 67° East  Level FlightAware Approximate
02:56PM 48.5868 155.0626 67° East  Level FlightAware Approximate
02:57PM 48.6404 155.2589 67° East  Level FlightAware Approximate
02:58PM 48.6937 155.4555 68° East  Level FlightAware Approximate
02:59PM 48.7467 155.6526 68° East  Level FlightAware Approximate
03:00PM 48.7994 155.8501 68° East  Level FlightAware Approximate
03:01PM 48.8517 156.0480 68° East  Level FlightAware Approximate
03:02PM 48.9036 156.2463 68° East  Level FlightAware Approximate
03:03PM 48.9552 156.4451 68° East  Level FlightAware Approximate
03:04PM 49.0065 156.6442 69° East  Level FlightAware Approximate
03:05PM 49.0575 156.8438 69° East  Level FlightAware Approximate
03:06PM 49.1081 157.0437 69° East  Level FlightAware Approximate
03:07PM 49.1583 157.2441 69° East  Level FlightAware Approximate
03:08PM 49.2082 157.4448 69° East  Level FlightAware Approximate
03:09PM 49.2577 157.6460 69° East  Level FlightAware Approximate
03:10PM 49.3069 157.8476 69° East  Level FlightAware Approximate
03:11PM 49.3558 158.0496 70° East  Level FlightAware Approximate
03:12PM 49.4043 158.2520 70° East  Level FlightAware Approximate
03:13PM 49.4524 158.4547 70° East  Level FlightAware Approximate
03:14PM 49.5002 158.6579 70° East  Level FlightAware Approximate
03:15PM 49.5476 158.8615 70° East  Level FlightAware Approximate
03:16PM 49.5947 159.0654 70° East  Level FlightAware Approximate
03:16PM 43.9833 164.2833 74° East 542 624 35,000  Level Oakland Oceanic (ODAPS)
03:17PM 49.6414 159.2698 70° East  Level FlightAware Approximate
03:18PM 49.6878 159.4745 71° East  Level FlightAware Approximate
03:19PM 49.7338 159.6797 71° East  Level FlightAware Approximate
03:20PM 49.7794 159.8852 71° East  Level FlightAware Approximate
03:21PM 49.8246 160.0911 71° East  Level FlightAware Approximate
03:22PM 44.2250 165.4912 75° East 542 624 35,000  Level FlightAware Transoceanic
03:23PM 44.2641 165.6935 75° East 542 624 35,000  Level FlightAware Transoceanic
03:24PM 44.3028 165.8960 75° East 542 624 35,000  Level FlightAware Transoceanic
03:25PM 44.3411 166.0988 75° East 542 624 35,000  Level FlightAware Transoceanic
03:26PM 44.3791 166.3019 75° East 542 624 35,000  Level FlightAware Transoceanic
03:27PM 44.4167 166.5052 76° East 542 624 35,000  Level FlightAware Transoceanic
03:28PM 44.4539 166.7088 76° East 542 624 35,000  Level FlightAware Transoceanic
03:29PM 44.4908 166.9126 76° East 542 624 35,000  Level FlightAware Transoceanic
03:30PM 44.5273 167.1167 76° East 542 624 35,000  Level FlightAware Transoceanic
03:30PM 44.5167 167.1000 76° East 536 617 35,000  Level Oakland Oceanic (ODAPS)
03:31PM 44.5635 167.3211 76° East 542 624 35,000  Level FlightAware Transoceanic
03:32PM 44.5993 167.5257 76° East 542 624 35,000  Level FlightAware Transoceanic
03:33PM 44.6347 167.7306 76° East 542 624 35,000  Level FlightAware Transoceanic
03:34PM 44.6698 167.9357 77° East 542 624 35,000  Level FlightAware Transoceanic
03:35PM 44.7044 168.1410 77° East 542 624 35,000  Level FlightAware Transoceanic
03:36PM 44.7328 168.3369 77° East 536 617 35,000  Level FlightAware Transoceanic
03:37PM 44.7675 168.5439 77° East 536 617 35,000  Level FlightAware Transoceanic
03:38PM 44.8018 168.7512 77° East 536 617 35,000  Level FlightAware Transoceanic
03:39PM 44.8358 168.9588 77° East 536 617 35,000  Level FlightAware Transoceanic
03:40PM 44.8694 169.1665 77° East 536 617 35,000  Level FlightAware Transoceanic
03:41PM 44.9026 169.3745 77° East 536 617 35,000  Level FlightAware Transoceanic
03:42PM 44.9355 169.5828 78° East 536 617 35,000  Level FlightAware Transoceanic
03:43PM 44.9679 169.7913 78° East 536 617 35,000  Level FlightAware Transoceanic
03:43PM 44.9833 169.8333 82° East 509 586 35,000  Level Oakland Oceanic (ODAPS)
03:44PM 45.0000 170.0000 78° East 536 617 35,000  Level FlightAware Transoceanic
03:45PM 45.0279 170.1922 78° East 536 617 35,000  Level FlightAware Transoceanic
03:45PM 45.0000 170.0000 78° East 500 575 35,000  Level Oakland Oceanic (ODAPS)
03:46PM 45.0555 170.3846 79° East 536 617 35,000  Level FlightAware Transoceanic
03:47PM 45.0827 170.5773 79° East 536 617 35,000  Level FlightAware Transoceanic
03:48PM 45.1097 170.7700 79° East 536 617 35,000  Level FlightAware Transoceanic
03:49PM 45.1363 170.9630 79° East 536 617 35,000  Level FlightAware Transoceanic
03:50PM 45.1363 170.9630 79° East 509 586 35,000  Level FlightAware Transoceanic
03:51PM 45.1626 171.1561 79° East 500 575 35,000  Level FlightAware Transoceanic
03:52PM 45.1885 171.3495 79° East 500 575 35,000  Level FlightAware Transoceanic
03:53PM 45.2141 171.5430 79° East 500 575 35,000  Level FlightAware Transoceanic
03:54PM 45.2394 171.7366 80° East 500 575 35,000  Level FlightAware Transoceanic
03:55PM 45.2644 171.9305 80° East 500 575 35,000  Level FlightAware Transoceanic
03:56PM 45.2891 172.1245 80° East 500 575 35,000  Level FlightAware Transoceanic
03:57PM 45.3134 172.3187 80° East 500 575 35,000  Level FlightAware Transoceanic
03:58PM 45.3374 172.5130 80° East 500 575 35,000  Level FlightAware Transoceanic
03:58PM 45.3333 172.5333 80° East 496 571 35,000  Level Oakland Oceanic (ODAPS)
03:59PM 45.3610 172.7075 80° East 500 575 35,000  Level FlightAware Transoceanic
04:00PM 45.3843 172.9022 80° East 500 575 35,000  Level FlightAware Transoceanic
04:01PM 45.4073 173.0970 81° East 500 575 35,000  Level FlightAware Transoceanic
04:02PM 45.4300 173.2920 81° East 500 575 35,000  Level FlightAware Transoceanic
04:03PM 45.4523 173.4872 81° East 500 575 35,000  Level FlightAware Transoceanic
04:04PM 45.4708 173.6995 81° East 496 571 35,000  Level FlightAware Transoceanic
04:05PM 45.4925 173.8944 81° East 496 571 35,000  Level FlightAware Transoceanic
04:06PM 45.5139 174.0895 81° East 496 571 35,000  Level FlightAware Transoceanic
04:07PM 45.5350 174.2847 81° East 496 571 35,000  Level FlightAware Transoceanic
04:08PM 45.5558 174.4801 81° East 496 571 35,000  Level FlightAware Transoceanic
04:09PM 45.5762 174.6756 82° East 496 571 35,000  Level FlightAware Transoceanic
04:10PM 45.5963 174.8712 82° East 496 571 35,000  Level FlightAware Transoceanic
04:11PM 45.6160 175.0670 82° East 496 571 35,000  Level FlightAware Transoceanic
04:11PM 45.6333 175.2500 82° East 498 573 35,000  Level Oakland Oceanic (ODAPS)
04:12PM 45.6354 175.2629 82° East 496 571 35,000  Level FlightAware Transoceanic
04:13PM 45.6545 175.4589 82° East 496 571 35,000  Level FlightAware Transoceanic
04:14PM 45.6733 175.6551 82° East 496 571 35,000  Level FlightAware Transoceanic
04:15PM 45.6917 175.8514 82° East 496 571 35,000  Level FlightAware Transoceanic
04:16PM 45.7098 176.0478 83° East 496 571 35,000  Level FlightAware Transoceanic
04:17PM 45.7275 176.2444 83° East 496 571 35,000  Level FlightAware Transoceanic
04:18PM 45.7558 176.5735 83° East 498 573 35,000  Level FlightAware Transoceanic
04:19PM 45.7720 176.7630 83° East 498 573 35,000  Level FlightAware Transoceanic
04:20PM 45.7880 176.9526 83° East 498 573 35,000  Level FlightAware Transoceanic
04:21PM 45.8036 177.1424 83° East 498 573 35,000  Level FlightAware Transoceanic
04:22PM 45.8189 177.3322 83° East 498 573 35,000  Level FlightAware Transoceanic
04:23PM 45.8339 177.5222 84° East 498 573 35,000  Level FlightAware Transoceanic
04:24PM 45.8486 177.7122 84° East 498 573 35,000  Level FlightAware Transoceanic
04:25PM 45.8629 177.9024 84° East 498 573 35,000  Level FlightAware Transoceanic
04:25PM 45.8667 177.9667 84° East 491 565 35,000  Level Oakland Oceanic (ODAPS)
04:26PM 45.8770 178.0926 84° East 498 573 35,000  Level FlightAware Transoceanic
04:27PM 45.8907 178.2830 84° East 498 573 35,000  Level FlightAware Transoceanic
04:28PM 45.9041 178.4734 84° East 498 573 35,000  Level FlightAware Transoceanic
04:29PM 45.9172 178.6639 84° East 498 573 35,000  Level FlightAware Transoceanic
04:30PM 45.9300 178.8546 85° East 498 573 35,000  Level FlightAware Transoceanic
04:31PM 45.9425 179.0453 85° East 498 573 35,000  Level FlightAware Transoceanic
04:32PM 45.9557 179.2595 85° East 491 565 35,000  Level FlightAware Transoceanic
04:33PM 45.9672 179.4445 85° East 491 565 35,000  Level FlightAware Transoceanic
04:34PM 45.9784 179.6296 85° East 491 565 35,000  Level FlightAware Transoceanic
04:35PM 45.9894 179.8148 85° East 491 565 35,000  Level FlightAware Transoceanic
04:36PM 46.0000 -180.0000 86° East 491 565 35,000  Level FlightAware Transoceanic
04:36PM 46.0000 180.0000 86° East 479 551 35,000  Level Oakland Oceanic (ODAPS)
04:37PM 46.0081 -179.8118 87° East 491 565 35,000  Level FlightAware Transoceanic
04:38PM 46.0158 -179.6235 87° East 491 565 35,000  Level FlightAware Transoceanic
04:39PM 46.0233 -179.4352 87° East 491 565 35,000  Level FlightAware Transoceanic
04:39PM 46.0333 -179.3833 87° East 477 549 35,000  Level Oakland Oceanic (ODAPS)
04:40PM 46.0304 -179.2468 87° East 491 565 35,000  Level FlightAware Transoceanic
04:41PM 46.0373 -179.0584 87° East 491 565 35,000  Level FlightAware Transoceanic
04:42PM 46.0445 -178.8482 87° East 479 551 35,000  Level FlightAware Transoceanic
04:43PM 46.0508 -178.6561 87° East 479 551 35,000  Level FlightAware Transoceanic
04:44PM 46.0568 -178.4639 88° East 479 551 35,000  Level FlightAware Transoceanic
04:45PM 46.0699 -178.2585 88° East 477 549 35,000  Level FlightAware Transoceanic
04:46PM 46.0749 -178.0709 88° East 477 549 35,000  Level FlightAware Transoceanic
04:47PM 46.0796 -177.8832 88° East 477 549 35,000  Level FlightAware Transoceanic
04:48PM 46.0840 -177.6956 88° East 477 549 35,000  Level FlightAware Transoceanic
04:49PM 46.0882 -177.5078 88° East 477 549 35,000  Level FlightAware Transoceanic
04:50PM 46.0919 -177.3201 88° East 477 549 35,000  Level FlightAware Transoceanic
04:51PM 46.0954 -177.1324 89° East 477 549 35,000  Level FlightAware Transoceanic
04:52PM 46.0986 -176.9446 89° East 477 549 35,000  Level FlightAware Transoceanic
04:53PM 46.1015 -176.7568 89° East 477 549 35,000  Level FlightAware Transoceanic
04:53PM 46.1000 -176.7667 89° East 475 547 35,000  Level Oakland Oceanic (ODAPS)
04:54PM 46.1040 -176.5690 89° East 477 549 35,000  Level FlightAware Transoceanic
04:55PM 46.1063 -176.3811 89° East 477 549 35,000  Level FlightAware Transoceanic
04:56PM 46.1082 -176.1933 89° East 477 549 35,000  Level FlightAware Transoceanic
04:57PM 46.1099 -176.0054 89° East 477 549 35,000  Level FlightAware Transoceanic
04:58PM 46.1112 -175.8176 89° East 477 549 35,000  Level FlightAware Transoceanic
04:59PM 46.1111 -175.6379 90° East 475 547 35,000  Level FlightAware Transoceanic
05:00PM 46.1119 -175.4498 90° East 475 547 35,000  Level FlightAware Transoceanic
05:01PM 46.1123 -175.2616 90° East 475 547 35,000  Level FlightAware Transoceanic
05:02PM 46.1125 -175.0735 90° East 475 547 35,000  Level FlightAware Transoceanic
05:03PM 46.1123 -174.8853 90° East 475 547 35,000  Level FlightAware Transoceanic
05:04PM 46.1119 -174.6971 90° East 475 547 35,000  Level FlightAware Transoceanic
05:05PM 46.1111 -174.5090 90° East 475 547 35,000  Level FlightAware Transoceanic
05:06PM 46.1100 -174.3208 91° East 475 547 35,000  Level FlightAware Transoceanic
05:07PM 46.1086 -174.1327 91° East 475 547 35,000  Level FlightAware Transoceanic
05:07PM 46.1000 -174.2333 90° East 459 528 35,000  Level Oakland Oceanic (ODAPS)
05:08PM 46.1069 -173.9446 91° East 475 547 35,000  Level FlightAware Transoceanic
05:09PM 46.1049 -173.7565 91° East 475 547 35,000  Level FlightAware Transoceanic
05:10PM 46.1026 -173.5683 91° East 475 547 35,000  Level FlightAware Transoceanic
05:11PM 46.0999 -173.3803 91° East 475 547 35,000  Level FlightAware Transoceanic
05:12PM 46.0970 -173.1922 91° East 475 547 35,000  Level FlightAware Transoceanic
05:13PM 46.0890 -173.1277 91° East 459 528 35,000  Level FlightAware Transoceanic
05:14PM 46.0861 -172.9435 91° East 459 528 35,000  Level FlightAware Transoceanic
05:15PM 46.0830 -172.7593 91° East 459 528 35,000  Level FlightAware Transoceanic
05:16PM 46.0795 -172.5751 92° East 459 528 35,000  Level FlightAware Transoceanic
05:17PM 46.0757 -172.3909 92° East 459 528 35,000  Level FlightAware Transoceanic
05:18PM 46.0717 -172.2068 92° East 459 528 35,000  Level FlightAware Transoceanic
05:19PM 46.0673 -172.0227 92° East 459 528 35,000  Level FlightAware Transoceanic
05:20PM 46.0627 -171.8386 92° East 459 528 35,000  Level FlightAware Transoceanic
05:21PM 46.0577 -171.6546 92° East 459 528 35,000  Level FlightAware Transoceanic
05:21PM 46.0667 -171.7500 93° East 439 505 35,000  Level Oakland Oceanic (ODAPS)
05:22PM 46.0525 -171.4706 92° East 459 528 35,000  Level FlightAware Transoceanic
05:23PM 46.0470 -171.2866 93° East 459 528 35,000  Level FlightAware Transoceanic
05:24PM 46.0411 -171.1027 93° East 459 528 35,000  Level FlightAware Transoceanic
05:25PM 46.0350 -170.9188 93° East 459 528 35,000  Level FlightAware Transoceanic
05:26PM 46.0286 -170.7349 93° East 459 528 35,000  Level FlightAware Transoceanic
05:27PM 46.0299 -170.6995 93° East 439 505 35,000  Level FlightAware Transoceanic
05:28PM 46.0228 -170.5245 93° East 439 505 35,000  Level FlightAware Transoceanic
05:29PM 46.0155 -170.3497 94° East 439 505 35,000  Level FlightAware Transoceanic
05:30PM 46.0079 -170.1748 94° East 439 505 35,000  Level FlightAware Transoceanic
05:31PM 46.0000 -170.0000 86° East 439 505 35,000  Level FlightAware Transoceanic
05:31PM 46.0000 -170.0000 86° East 473 544 35,000  Level Oakland Oceanic (ODAPS)
05:32PM 46.0084 -169.8044 87° East 439 505 35,000  Level FlightAware Transoceanic
05:33PM 46.0164 -169.6088 87° East 439 505 35,000  Level FlightAware Transoceanic
05:34PM 46.0242 -169.4131 87° East 439 505 35,000  Level FlightAware Transoceanic
05:34PM 46.0333 -169.3000 87° East 483 556 35,000  Level Oakland Oceanic (ODAPS)
05:35PM 46.0315 -169.2173 87° East 439 505 35,000  Level FlightAware Transoceanic
05:36PM 46.0386 -169.0215 87° East 439 505 35,000  Level FlightAware Transoceanic
05:37PM 46.0438 -168.8700 87° East 473 544 35,000  Level FlightAware Transoceanic
05:38PM 46.0500 -168.6815 87° East 473 544 35,000  Level FlightAware Transoceanic
05:39PM 46.0559 -168.4929 87° East 473 544 35,000  Level FlightAware Transoceanic
05:40PM 46.0615 -168.3043 88° East 473 544 35,000  Level FlightAware Transoceanic
05:41PM 46.0704 -168.1386 88° East 483 556 35,000  Level FlightAware Transoceanic
05:42PM 46.0755 -167.9449 88° East 483 556 35,000  Level FlightAware Transoceanic
05:43PM 46.0802 -167.7512 88° East 483 556 35,000  Level FlightAware Transoceanic
05:44PM 46.0846 -167.5574 88° East 483 556 35,000  Level FlightAware Transoceanic
05:45PM 46.0886 -167.3636 88° East 483 556 35,000  Level FlightAware Transoceanic
05:46PM 46.0924 -167.1698 88° East 483 556 35,000  Level FlightAware Transoceanic
05:47PM 46.0958 -166.9759 89° East 483 556 35,000  Level FlightAware Transoceanic
05:48PM 46.0989 -166.7821 89° East 483 556 35,000  Level FlightAware Transoceanic
05:48PM 46.1000 -166.6833 89° East 489 563 35,000  Level Oakland Oceanic (ODAPS)
05:49PM 46.1016 -166.5882 89° East 483 556 35,000  Level FlightAware Transoceanic
05:50PM 46.1040 -166.3943 89° East 483 556 35,000  Level FlightAware Transoceanic
05:51PM 46.1061 -166.2003 89° East 483 556 35,000  Level FlightAware Transoceanic
05:52PM 46.1079 -166.0064 89° East 483 556 35,000  Level FlightAware Transoceanic
05:53PM 46.1093 -165.8124 89° East 483 556 35,000  Level FlightAware Transoceanic
05:54PM 46.1104 -165.6185 90° East 483 556 35,000  Level FlightAware Transoceanic
05:55PM 46.1107 -165.5029 90° East 489 563 35,000  Level FlightAware Transoceanic
05:56PM 46.1113 -165.3061 90° East 489 563 35,000  Level FlightAware Transoceanic
05:57PM 46.1115 -165.1093 90° East 489 563 35,000  Level FlightAware Transoceanic
05:58PM 46.1115 -164.9126 90° East 489 563 35,000  Level FlightAware Transoceanic
05:59PM 46.1111 -164.7158 90° East 489 563 35,000  Level FlightAware Transoceanic
06:00PM 46.1103 -164.5190 90° East 489 563 35,000  Level FlightAware Transoceanic
06:01PM 46.1092 -164.3223 91° East 489 563 35,000  Level FlightAware Transoceanic
06:02PM 46.1078 -164.1255 91° East 489 563 35,000  Level FlightAware Transoceanic
06:02PM 46.1000 -164.0000 91° East 489 563 35,000  Level Oakland Oceanic (ODAPS)
06:03PM 46.1060 -163.9288 91° East 489 563 35,000  Level FlightAware Transoceanic
06:04PM 46.1039 -163.7321 91° East 489 563 35,000  Level FlightAware Transoceanic
06:05PM 46.1015 -163.5353 91° East 489 563 35,000  Level FlightAware Transoceanic
06:06PM 46.0987 -163.3386 91° East 489 563 35,000  Level FlightAware Transoceanic
06:07PM 46.0956 -163.1420 91° East 489 563 35,000  Level FlightAware Transoceanic
06:08PM 46.0922 -162.9453 92° East 489 563 35,000  Level FlightAware Transoceanic
06:09PM 46.0822 -162.6652 92° East 489 563 35,000  Level FlightAware Transoceanic
06:10PM 46.0784 -162.4746 92° East 489 563 35,000  Level FlightAware Transoceanic
06:11PM 46.0742 -162.2840 92° East 489 563 35,000  Level FlightAware Transoceanic
06:12PM 46.0698 -162.0934 92° East 489 563 35,000  Level FlightAware Transoceanic
06:13PM 46.0650 -161.9029 92° East 489 563 35,000  Level FlightAware Transoceanic
06:14PM 46.0599 -161.7124 92° East 489 563 35,000  Level FlightAware Transoceanic
06:15PM 46.0546 -161.5220 92° East 489 563 35,000  Level FlightAware Transoceanic
06:16PM 46.0488 -161.3316 93° East 489 563 35,000  Level FlightAware Transoceanic
06:16PM 46.0500 -161.3167 93° East 494 568 35,000  Level Oakland Oceanic (ODAPS)
06:17PM 46.0428 -161.1412 93° East 489 563 35,000  Level FlightAware Transoceanic
06:18PM 46.0365 -160.9509 93° East 489 563 35,000  Level FlightAware Transoceanic
06:19PM 46.0298 -160.7606 93° East 489 563 35,000  Level FlightAware Transoceanic
06:20PM 46.0228 -160.5704 93° East 489 563 35,000  Level FlightAware Transoceanic
06:21PM 46.0155 -160.3802 93° East 489 563 35,000  Level FlightAware Transoceanic
06:22PM 46.0079 -160.1901 93° East 489 563 35,000  Level FlightAware Transoceanic
06:23PM 46.0000 -160.0000 86° East 494 568 35,000  Level FlightAware Transoceanic
06:23PM 46.0000 -160.0000 86° East 517 595 35,000  Level Oakland Oceanic (ODAPS)
06:24PM 46.0091 -159.7878 87° East 494 568 35,000  Level FlightAware Transoceanic
06:25PM 46.0178 -159.5755 87° East 494 568 35,000  Level FlightAware Transoceanic
06:26PM 46.0261 -159.3631 87° East 494 568 35,000  Level FlightAware Transoceanic
06:27PM 46.0340 -159.1506 87° East 494 568 35,000  Level FlightAware Transoceanic
06:28PM 46.0415 -158.9381 87° East 494 568 35,000  Level FlightAware Transoceanic
06:29PM 46.0477 -158.7522 87° East 517 595 35,000  Level FlightAware Transoceanic
06:30PM 46.0544 -158.5440 87° East 517 595 35,000  Level FlightAware Transoceanic
06:30PM 46.0500 -158.5500 87° East 516 594 35,000  Level Oakland Oceanic (ODAPS)
06:31PM 46.0606 -158.3358 88° East 517 595 35,000  Level FlightAware Transoceanic
06:32PM 46.0665 -158.1275 88° East 517 595 35,000  Level FlightAware Transoceanic
06:33PM 46.0720 -157.9192 88° East 517 595 35,000  Level FlightAware Transoceanic
06:34PM 46.0771 -157.7109 88° East 517 595 35,000  Level FlightAware Transoceanic
06:35PM 46.0818 -157.5025 88° East 517 595 35,000  Level FlightAware Transoceanic
06:36PM 46.0819 -157.3291 88° East 516 594 35,000  Level FlightAware Transoceanic
06:37PM 46.0860 -157.1254 88° East 516 594 35,000  Level FlightAware Transoceanic
06:38PM 46.0897 -156.9218 89° East 516 594 35,000  Level FlightAware Transoceanic
06:39PM 46.0930 -156.7181 89° East 516 594 35,000  Level FlightAware Transoceanic
06:40PM 46.0960 -156.5145 89° East 516 594 35,000  Level FlightAware Transoceanic
06:41PM 46.0986 -156.3107 89° East 516 594 35,000  Level FlightAware Transoceanic
06:42PM 46.1008 -156.1070 89° East 516 594 35,000  Level FlightAware Transoceanic
06:43PM 46.1027 -155.9033 89° East 516 594 35,000  Level FlightAware Transoceanic
06:44PM 46.1042 -155.6995 89° East 516 594 35,000  Level FlightAware Transoceanic
06:44PM 46.1000 -155.7167 89° East 534 615 35,000  Level Oakland Oceanic (ODAPS)
06:45PM 46.1054 -155.4957 90° East 516 594 35,000  Level FlightAware Transoceanic
06:46PM 46.1062 -155.2920 90° East 516 594 35,000  Level FlightAware Transoceanic
06:47PM 46.1066 -155.0882 90° East 516 594 35,000  Level FlightAware Transoceanic
06:48PM 46.1067 -154.8844 90° East 516 594 35,000  Level FlightAware Transoceanic
06:49PM 46.1064 -154.6806 90° East 516 594 35,000  Level FlightAware Transoceanic
06:50PM 46.1024 -154.4450 90° East 534 615 35,000  Level FlightAware Transoceanic
06:51PM 46.1015 -154.2330 90° East 534 615 35,000  Level FlightAware Transoceanic
06:52PM 46.1001 -154.0211 91° East 534 615 35,000  Level FlightAware Transoceanic
06:53PM 46.0984 -153.8092 91° East 534 615 35,000  Level FlightAware Transoceanic
06:54PM 46.0962 -153.5973 91° East 534 615 35,000  Level FlightAware Transoceanic
06:55PM 46.0937 -153.3854 91° East 534 615 35,000  Level FlightAware Transoceanic
06:56PM 46.0908 -153.1735 91° East 534 615 35,000  Level FlightAware Transoceanic
06:57PM 46.0874 -152.9617 91° East 534 615 35,000  Level FlightAware Transoceanic
06:58PM 46.0837 -152.7498 92° East 534 615 35,000 1,680 Level FlightAware Transoceanic
06:58PM 46.0833 -152.7000 92° East 560 644 37,000  Climbing Oakland Oceanic (ODAPS)
06:59PM 46.0796 -152.5381 92° East 534 615 35,000 -1,140 Descending FlightAware Transoceanic
07:00PM 46.0751 -152.3263 92° East 534 615 35,000  Level FlightAware Transoceanic
07:01PM 46.0703 -152.1146 92° East 534 615 35,000  Level FlightAware Transoceanic
07:02PM 46.0650 -151.9029 92° East 534 615 35,000  Level FlightAware Transoceanic
07:03PM 46.0593 -151.6913 92° East 534 615 35,000 960 Level FlightAware Transoceanic
07:04PM 46.0496 -151.3490 93° East 560 644 37,000 960 Climbing FlightAware Transoceanic
07:05PM 46.0424 -151.1240 93° East 560 644 37,000  Level FlightAware Transoceanic
07:06PM 46.0348 -150.8991 93° East 560 644 37,000  Level FlightAware Transoceanic
07:07PM 46.0268 -150.6742 93° East 560 644 37,000  Level FlightAware Transoceanic
07:08PM 46.0183 -150.4494 93° East 560 644 37,000  Level FlightAware Transoceanic
07:09PM 46.0094 -150.2247 93° East 560 644 37,000  Level FlightAware Transoceanic
07:10PM 46.0000 -150.0000 95° East 560 644 37,000  Level FlightAware Transoceanic
07:10PM 46.0000 -150.0000 95° East 544 626 37,000  Level Oakland Oceanic (ODAPS)
07:11PM 45.9876 -149.7793 95° East 560 644 37,000  Level FlightAware Transoceanic
07:12PM 45.9749 -149.5587 95° East 560 644 37,000  Level FlightAware Transoceanic
07:12PM 45.9833 -149.6000 95° East 542 624 37,000  Level Oakland Oceanic (ODAPS)
07:13PM 45.9617 -149.3383 95° East 560 644 37,000  Level FlightAware Transoceanic
07:14PM 45.9480 -149.1179 95° East 560 644 37,000  Level FlightAware Transoceanic
07:15PM 45.9340 -148.8976 95° East 560 644 37,000  Level FlightAware Transoceanic
07:16PM 45.9214 -148.7056 95° East 544 626 37,000  Level FlightAware Transoceanic
07:17PM 45.9068 -148.4902 96° East 544 626 37,000  Level FlightAware Transoceanic
07:18PM 45.8991 -148.3024 96° East 542 624 37,000  Level FlightAware Transoceanic
07:19PM 45.8836 -148.0865 96° East 542 624 37,000  Level FlightAware Transoceanic
07:20PM 45.8678 -147.8708 96° East 542 624 37,000  Level FlightAware Transoceanic
07:21PM 45.8515 -147.6552 96° East 542 624 37,000  Level FlightAware Transoceanic
07:22PM 45.8348 -147.4397 96° East 542 624 37,000  Level FlightAware Transoceanic
07:23PM 45.8177 -147.2243 97° East 542 624 37,000  Level FlightAware Transoceanic
07:24PM 45.8002 -147.0091 97° East 542 624 37,000  Level FlightAware Transoceanic
07:25PM 45.7823 -146.7940 97° East 542 624 37,000  Level FlightAware Transoceanic
07:25PM 45.7667 -146.5667 97° East 541 623 37,000  Level Oakland Oceanic (ODAPS)
07:26PM 45.7640 -146.5791 97° East 542 624 37,000  Level FlightAware Transoceanic
07:27PM 45.7453 -146.3642 97° East 542 624 37,000  Level FlightAware Transoceanic
07:28PM 45.7262 -146.1496 97° East 542 624 37,000  Level FlightAware Transoceanic
07:29PM 45.7067 -145.9351 97° East 542 624 37,000  Level FlightAware Transoceanic
07:30PM 45.6868 -145.7207 98° East 542 624 37,000  Level FlightAware Transoceanic
07:31PM 45.6665 -145.5065 98° East 542 624 37,000  Level FlightAware Transoceanic
07:32PM 45.6478 -145.2824 98° East 541 623 37,000  Level FlightAware Transoceanic
07:33PM 45.6266 -145.0689 98° East 541 623 37,000  Level FlightAware Transoceanic
07:34PM 45.6050 -144.8556 98° East 541 623 37,000  Level FlightAware Transoceanic
07:35PM 45.5830 -144.6424 98° East 541 623 37,000  Level FlightAware Transoceanic
07:36PM 45.5606 -144.4294 99° East 541 623 37,000  Level FlightAware Transoceanic
07:37PM 45.5378 -144.2166 99° East 541 623 37,000  Level FlightAware Transoceanic
07:38PM 45.5146 -144.0039 99° East 541 623 37,000  Level FlightAware Transoceanic
07:39PM 45.4911 -143.7914 99° East 541 623 37,000  Level FlightAware Transoceanic
07:39PM 45.4667 -143.6500 99° East 530 610 37,000  Level Oakland Oceanic (ODAPS)
07:40PM 45.4671 -143.5791 99° East 541 623 37,000  Level FlightAware Transoceanic
07:41PM 45.4427 -143.3670 99° East 541 623 37,000  Level FlightAware Transoceanic
07:42PM 45.4180 -143.1551 100° East 541 623 37,000  Level FlightAware Transoceanic
07:43PM 45.3928 -142.9434 100° East 541 623 37,000  Level FlightAware Transoceanic
07:44PM 45.3673 -142.7318 100° East 541 623 37,000  Level FlightAware Transoceanic
07:45PM 45.3413 -142.5204 100° East 541 623 37,000  Level FlightAware Transoceanic
07:46PM 45.3153 -142.3550 100° East 530 610 37,000  Level FlightAware Transoceanic
07:47PM 45.2886 -142.1398 100° East 530 610 37,000  Level FlightAware Transoceanic
07:48PM 45.2616 -141.9249 100° East 530 610 37,000  Level FlightAware Transoceanic
07:49PM 45.2341 -141.7102 100° East 530 610 37,000  Level FlightAware Transoceanic
07:50PM 45.2062 -141.4956 101° East 530 610 37,000  Level FlightAware Transoceanic
07:51PM 45.1780 -141.2813 101° East 530 610 37,000  Level FlightAware Transoceanic
07:52PM 45.1493 -141.0672 101° East 530 610 37,000  Level FlightAware Transoceanic
07:53PM 45.1202 -140.8533 101° East 530 610 37,000  Level FlightAware Transoceanic
07:53PM 45.1167 -140.8333 101° East 527 606 37,000  Level Oakland Oceanic (ODAPS)
07:54PM 45.0908 -140.6397 101° East 530 610 37,000  Level FlightAware Transoceanic
07:55PM 45.0609 -140.4262 101° East 530 610 37,000  Level FlightAware Transoceanic
07:56PM 45.0307 -140.2130 101° East 530 610 37,000  Level FlightAware Transoceanic
07:57PM 45.0000 -140.0000 109° East 530 610 37,000  Level FlightAware Transoceanic
07:58PM 44.9526 -139.8059 109° East 530 610 37,000  Level FlightAware Transoceanic
07:58PM 45.0000 -140.0000 109° East 522 601 37,000  Level Oakland Oceanic (ODAPS)
07:59PM 44.9049 -139.6122 109° East 530 610 37,000  Level FlightAware Transoceanic
08:00PM 44.8569 -139.4187 109° East 527 606 37,000  Level FlightAware Transoceanic
08:01PM 44.8086 -139.2256 110° East 527 606 37,000  Level FlightAware Transoceanic
08:02PM 44.7599 -139.0328 110° East 527 606 37,000  Level FlightAware Transoceanic
08:03PM 44.7109 -138.8403 110° East 527 606 37,000  Level FlightAware Transoceanic
08:04PM 44.6678 -138.6726 110° East 522 601 37,000  Level FlightAware Transoceanic
08:05PM 44.6191 -138.4843 110° East 522 601 37,000  Level FlightAware Transoceanic
08:06PM 44.5701 -138.2962 110° East 522 601 37,000  Level FlightAware Transoceanic
08:07PM 44.5208 -138.1085 110° East 522 601 37,000  Level FlightAware Transoceanic
08:07PM 44.5167 -138.1167 110° East 517 595 37,000  Level Oakland Oceanic (ODAPS)
08:08PM 44.4712 -137.9211 110° East 522 601 37,000  Level FlightAware Transoceanic
08:09PM 44.4213 -137.7340 111° Southeast 522 601 37,000  Level FlightAware Transoceanic
08:10PM 44.3710 -137.5472 111° Southeast 522 601 37,000  Level FlightAware Transoceanic
08:11PM 44.3205 -137.3608 111° Southeast 522 601 37,000  Level FlightAware Transoceanic
08:12PM 44.2696 -137.1746 111° Southeast 522 601 37,000  Level FlightAware Transoceanic
08:13PM 44.2150 -136.9959 111° Southeast 517 595 37,000  Level FlightAware Transoceanic
08:14PM 44.1636 -136.8103 111° Southeast 517 595 37,000  Level FlightAware Transoceanic
08:15PM 44.1120 -136.6249 111° Southeast 517 595 37,000  Level FlightAware Transoceanic
08:16PM 44.0601 -136.4399 111° Southeast 517 595 37,000  Level FlightAware Transoceanic
08:17PM 44.0078 -136.2552 112° Southeast 517 595 37,000  Level FlightAware Transoceanic
08:18PM 43.9553 -136.0709 112° Southeast 517 595 37,000  Level FlightAware Transoceanic
08:19PM 43.9024 -135.8868 112° Southeast 517 595 37,000  Level FlightAware Transoceanic
08:20PM 43.8493 -135.7031 112° Southeast 517 595 37,000  Level FlightAware Transoceanic
08:21PM 43.7959 -135.5197 112° Southeast 517 595 37,000  Level FlightAware Transoceanic
08:21PM 43.8000 -135.5167 112° Southeast 519 597 37,000  Level Oakland Oceanic (ODAPS)
08:22PM 43.7422 -135.3367 112° Southeast 517 595 37,000  Level FlightAware Transoceanic
08:23PM 43.6882 -135.1540 112° Southeast 517 595 37,000  Level FlightAware Transoceanic
08:24PM 43.6339 -134.9716 112° Southeast 517 595 37,000  Level FlightAware Transoceanic
08:25PM 43.5793 -134.7895 113° Southeast 517 595 37,000  Level FlightAware Transoceanic
08:26PM 43.5244 -134.6078 113° Southeast 517 595 37,000  Level FlightAware Transoceanic
08:27PM 43.4725 -134.4238 113° Southeast 519 597 37,000  Level FlightAware Transoceanic
08:28PM 43.4170 -134.2429 113° Southeast 519 597 37,000  Level FlightAware Transoceanic
08:29PM 43.3611 -134.0622 113° Southeast 519 597 37,000  Level FlightAware Transoceanic
08:30PM 43.3049 -133.8819 113° Southeast 519 597 37,000  Level FlightAware Transoceanic
08:31PM 43.2485 -133.7019 113° Southeast 519 597 37,000  Level FlightAware Transoceanic
08:32PM 43.1918 -133.5223 113° Southeast 519 597 37,000  Level FlightAware Transoceanic
08:33PM 43.1348 -133.3430 114° Southeast 519 597 37,000  Level FlightAware Transoceanic
08:34PM 43.0775 -133.1640 114° Southeast 519 597 37,000  Level FlightAware Transoceanic
08:35PM 43.0200 -132.9854 114° Southeast 519 597 37,000 720 Level FlightAware Transoceanic
08:35PM 43.0333 -133.0167 114° Southeast 510 587 38,000  Climbing Oakland Oceanic (ODAPS)
08:36PM 42.9621 -132.8071 114° Southeast 519 597 37,000 -600 Descending FlightAware Transoceanic
08:37PM 42.9040 -132.6291 114° Southeast 519 597 37,000  Level FlightAware Transoceanic
08:38PM 42.8456 -132.4515 114° Southeast 519 597 37,000  Level FlightAware Transoceanic
08:39PM 42.7870 -132.2742 114° Southeast 519 597 37,000  Level FlightAware Transoceanic
08:40PM 42.7281 -132.0972 114° Southeast 519 597 37,000 480 Level FlightAware Transoceanic
08:41PM 42.6777 -131.9406 115° Southeast 510 587 38,000 480 Climbing FlightAware Transoceanic
08:42PM 42.6174 -131.7624 115° Southeast 510 587 38,000  Level FlightAware Transoceanic
08:43PM 42.5569 -131.5846 115° Southeast 510 587 38,000  Level FlightAware Transoceanic
08:44PM 42.4961 -131.4072 115° Southeast 510 587 38,000  Level FlightAware Transoceanic
08:45PM 42.4351 -131.2301 115° Southeast 510 587 38,000  Level FlightAware Transoceanic
08:46PM 42.3737 -131.0533 115° Southeast 510 587 38,000  Level FlightAware Transoceanic
08:47PM 42.3121 -130.8769 115° Southeast 510 587 38,000  Level FlightAware Transoceanic
08:48PM 42.2502 -130.7008 115° Southeast 510 587 38,000  Level FlightAware Transoceanic
08:49PM 42.1881 -130.5251 116° Southeast 510 587 38,000  Level FlightAware Transoceanic
08:49PM 42.2167 -130.6167 115° Southeast 509 586 38,000  Level Oakland Oceanic (ODAPS)
08:50PM 42.1256 -130.3497 116° Southeast 510 587 38,000  Level FlightAware Transoceanic
08:51PM 42.0630 -130.1747 116° Southeast 510 587 38,000  Level FlightAware Transoceanic
08:52PM 42.0000 -130.0000 120° Southeast 510 587 38,000  Level FlightAware Transoceanic
08:53PM 41.9300 -129.8389 120° Southeast 510 587 38,000  Level FlightAware Transoceanic
08:53PM 42.0000 -130.0000 120° Southeast 508 585 38,000  Level Oakland Oceanic (ODAPS)
08:54PM 41.8599 -129.6783 120° Southeast 510 587 38,000  Level FlightAware Transoceanic
08:55PM 41.7894 -129.5179 121° Southeast 509 586 38,000  Level FlightAware Transoceanic
08:56PM 41.7188 -129.3579 121° Southeast 509 586 38,000  Level FlightAware Transoceanic
08:57PM 41.6480 -129.1983 121° Southeast 509 586 38,000  Level FlightAware Transoceanic
08:58PM 41.5769 -129.0390 121° Southeast 509 586 38,000  Level FlightAware Transoceanic
08:59PM 41.5056 -128.8801 121° Southeast 508 585 38,000  Level FlightAware Transoceanic
09:00PM 41.4341 -128.7215 121° Southeast 508 585 38,000  Level FlightAware Transoceanic
09:01PM 41.3624 -128.5633 121° Southeast 508 585 38,000  Level FlightAware Transoceanic
09:02PM 41.2904 -128.4054 121° Southeast 508 585 38,000  Level FlightAware Transoceanic
09:02PM 41.2667 -128.3667 121° Southeast 497 572 38,000  Level Oakland Oceanic (ODAPS)
09:03PM 41.2182 -128.2478 121° Southeast 508 585 38,000  Level FlightAware Transoceanic
09:04PM 41.1459 -128.0906 122° Southeast 508 585 38,000  Level FlightAware Transoceanic
09:05PM 41.0733 -127.9338 122° Southeast 508 585 38,000  Level FlightAware Transoceanic
09:06PM 41.0005 -127.7773 122° Southeast 508 585 38,000  Level FlightAware Transoceanic
09:07PM 40.9275 -127.6212 122° Southeast 508 585 38,000  Level FlightAware Transoceanic
09:07PM 40.9075 -127.6267 118° Southeast 494 568 38,000  Level Oakland Center
09:08PM 40.9168 -127.6042 122° Southeast 497 572 38,000 -120 Level FlightAware Transoceanic
09:08PM 40.8292 -127.4800 125° Southeast 492 566 37,900  Descending Oakland Center
09:09PM 40.8462 -127.4526 122° Southeast 497 572 38,000  Climbing FlightAware Transoceanic
09:09PM 40.7411 -127.3408 130° Southeast 490 564 37,900  Descending Oakland Center
09:10PM 40.7755 -127.3014 122° Southeast 497 572 38,000 60 Climbing FlightAware Transoceanic
09:10PM 40.6358 -127.1689 129° Southeast 495 570 38,000  Level Oakland Center
09:11PM 40.7045 -127.1506 122° Southeast 497 572 38,000  Level FlightAware Transoceanic
09:11PM 40.5486 -127.0258 129° Southeast 499 574 38,000  Level Oakland Center
09:12PM 40.6333 -127.0000 118° Southeast 497 572 38,000 -120 Level FlightAware Transoceanic
09:12PM 40.4617 -126.8850 129° Southeast 499 574 37,900  Descending Oakland Center
09:13PM 40.5640 -126.8266 118° Southeast 497 572 38,000 60 Climbing FlightAware Transoceanic
09:13PM 40.3764 -126.7453 129° Southeast 497 572 38,000  Level Oakland Center
09:14PM 40.2889 -126.6061 129° Southeast 496 571 38,000 -60 Level Oakland Center
09:15PM 40.2006 -126.4669 130° Southeast 498 573 37,900  Descending Oakland Center
09:16PM 40.1119 -126.3286 130° Southeast 497 572 38,000  Climbing Oakland Center
09:17PM 40.0253 -126.1900 129° Southeast 496 571 38,000  Level Oakland Center
09:18PM 39.9369 -126.0531 130° Southeast 496 571 38,000 -60 Level Oakland Center
09:20PM 39.8478 -125.9167 130° Southeast 496 571 37,900 -60 Descending Oakland Center
09:21PM 39.7611 -125.7806 130° Southeast 494 568 37,900  Level Oakland Center
09:22PM 39.6533 -125.6164 130° Southeast 496 571 37,900  Level Oakland Center
09:23PM 39.5661 -125.4811 130° Southeast 494 568 38,000  Climbing Oakland Center
09:24PM 39.4772 -125.3447 130° Southeast 496 571 38,000  Level Oakland Center
09:25PM 39.3969 -125.2247 131° Southeast 493 567 38,000  Level Oakland Center
09:26PM 39.3089 -125.0897 130° Southeast 493 567 38,000  Level Oakland Center
09:27PM 39.2031 -124.9292 130° Southeast 489 563 38,000  Level Oakland Center
09:28PM 39.1231 -124.8100 131° Southeast 492 566 38,000  Level Oakland Center
09:29PM 39.0339 -124.6767 131° Southeast 491 565 38,000 -60 Level Oakland Center
09:30PM 38.9336 -124.5294 131° Southeast 496 571 37,900  Descending Oakland Center
09:31PM 38.8547 -124.4111 131° Southeast 495 570 38,000  Climbing Oakland Center
09:32PM 38.7494 -124.2531 130° Southeast 487 560 38,000 -60 Level Oakland Center
09:33PM 38.6661 -124.1328 132° Southeast 492 566 37,900 -180 Descending Oakland Center
09:34PM 38.5758 -124.0000 131° Southeast 496 571 37,700 -240 Descending Oakland Center
09:35PM 38.4861 -123.8697 131° Southeast 489 563 37,500 -300 Descending Oakland Center
09:36PM 38.3969 -123.7406 131° Southeast 487 560 37,200 -300 Descending Oakland Center
09:37PM 38.3081 -123.6111 131° Southeast 487 560 37,000 -120 Descending Oakland Center
09:38PM 38.2186 -123.4828 132° Southeast 485 558 37,000  Level Oakland Center
09:39PM 38.1097 -123.3300 132° Southeast 488 562 37,000  Level Oakland Center
09:40PM 38.0200 -123.2019 132° Southeast 488 562 37,000  Level Oakland Center
09:41PM 37.9314 -123.0744 131° Southeast 485 558 37,000  Level Oakland Center
09:42PM 37.8411 -122.9467 132° Southeast 490 564 37,000  Level Oakland Center
09:43PM 37.7506 -122.8211 132° Southeast 493 567 37,000  Level Oakland Center
09:44PM 37.6608 -122.6944 132° Southeast 495 570 37,000  Level Oakland Center
09:45PM 37.5719 -122.5678 131° Southeast 488 562 37,000  Level Oakland Center
09:46PM 37.4628 -122.4156 132° Southeast 491 565 37,000  Level Oakland Center
09:47PM 37.3728 -122.2892 132° Southeast 488 562 37,000  Level Oakland Center
09:48PM 37.2819 -122.1633 132° Southeast 489 563 37,000  Level Oakland Center
09:49PM 37.1911 -122.0369 132° Southeast 488 562 37,000  Level Oakland Center
09:50PM 37.0997 -121.9133 133° Southeast 487 560 37,000  Level Oakland Center
09:51PM 37.0092 -121.7872 132° Southeast 488 562 37,000  Level Oakland Center
09:52PM 36.9161 -121.6664 134° Southeast 483 556 37,000  Level Oakland Center
09:53PM 36.8167 -121.5283 132° Southeast 488 562 37,000  Level Oakland Center
09:54PM 36.7261 -121.4022 132° Southeast 487 560 37,000  Level Oakland Center
09:55PM 36.6342 -121.2783 133° Southeast 486 559 37,000  Level Oakland Center
09:56PM 36.5419 -121.1558 133° Southeast 482 555 37,000  Level Oakland Center
09:57PM 36.4522 -121.0292 131° Southeast 485 558 37,000  Level Oakland Center
09:58PM 36.4194 -120.8658 104° East 484 557 37,000  Level Oakland Center
09:59PM 36.4089 -120.7011 95° East 479 551 37,000 -60 Level Oakland Center
10:00PM 36.3761 -120.5469 105° East 470 541 36,900 -60 Descending Oakland Center
10:01PM 36.2731 -120.4444 141° Southeast 482 555 36,900  Level Oakland Center
10:02PM 36.1597 -120.3594 149° Southeast 475 547 37,000  Climbing Oakland Center
10:03PM 36.0481 -120.2753 149° Southeast 469 540 36,900 -60 Descending Oakland Center
10:04PM 35.9383 -120.1950 149° Southeast 456 525 36,900  Level Oakland Center
10:05PM 35.8275 -120.1111 148° Southeast 463 533 36,900  Level Oakland Center
10:06PM 35.6919 -120.0111 149° Southeast 467 537 36,900 -240 Level Oakland Center
10:07PM 35.5828 -119.9228 147° Southeast 465 535 36,500 -840 Descending Oakland Center
10:08PM 35.4761 -119.8292 144° Southeast 467 537 35,300 -1,200 Descending Oakland Center
10:09PM 35.3681 -119.7369 145° Southeast 469 540 34,100 -1,140 Descending Oakland Center
10:10PM 35.3250 -119.7003 145° Southeast 470 541 33,600 -1,440 Descending Los Angeles Center
10:11PM 35.2172 -119.6078 145° Southeast 470 541 32,000 -1,800 Descending Los Angeles Center
10:12PM 35.1125 -119.5183 145° Southeast 462 532 30,000 -1,920 Descending Los Angeles Center
10:13PM 35.0092 -119.4306 145° Southeast 453 521 28,100 -1,860 Descending Los Angeles Center
10:14PM 34.9083 -119.3444 145° Southeast 446 513 26,200 -2,100 Descending Los Angeles Center
10:15PM 34.7900 -119.2436 145° Southeast 434 499 23,900 -2,040 Descending Los Angeles Center
10:16PM 34.6925 -119.1622 146° Southeast 428 493 22,100 -1,680 Descending Los Angeles Center
10:17PM 34.6072 -119.0917 146° Southeast 423 487 20,500 -1,740 Descending Los Angeles Center
10:18PM 34.5128 -119.0119 145° Southeast 413 475 18,600 -1,860 Descending Los Angeles Center
10:19PM 34.4047 -118.9203 145° Southeast 394 453 16,700 -1,980 Descending Los Angeles Center
10:20PM 34.3111 -118.8642 154° Southeast 379 436 14,600 -1,920 Descending Los Angeles Center
10:21PM 34.2128 -118.8286 163° South 367 422 12,900 -1,500 Descending Los Angeles Center
10:22PM 34.1181 -118.7947 164° South 358 412 11,600 -1,080 Descending Los Angeles Center
10:23PM 34.0383 -118.7322 147° Southeast 316 364 10,700 -900 Descending Los Angeles Center
10:24PM 34.0269 -118.6336 98° East 299 344 9,800 -1,140 Descending Los Angeles Center
10:25PM 34.0186 -118.5361 96° East 293 337 8,400 -1,080 Descending Los Angeles Center
10:26PM 34.0106 -118.4514 97° East 285 328 7,700 -720 Descending Los Angeles Center
10:27PM 34.0239 -118.3700 79° East 254 292 7,000 -1,140 Descending Los Angeles Center
10:28PM 34.0353 -118.2903 80° East 243 280 5,500 -1,860 Descending Los Angeles Center
10:29PM 33.9797 -118.2614 157° South 214 246 3,300 -2,220 Descending Los Angeles Center